Time;durP1;ratioP1;P1;durP2;ratioP2;P2;SDS_P1;SDS_P2;PMS_P1;PMS_P2;Temp;Humidity;BMP_temperature;BMP_pressure;BME280_temperature;BME280_humidity;BME280_pressure;Samples;Min_cycle;Max_cycle;Signal;HPM_P1;HPM_P2
2022/06/23 00:02:24;;;;;;;6.28;5.50;;;12.90;99.90;;;;;;5067859;28;20076;-77
2022/06/23 00:04:51;;;;;;;;;;;12.90;99.90;;;;;;5053867;28;20419;-77
2022/06/23 00:07:26;;;;;;;8.90;6.38;;;12.90;99.90;;;;;;5088252;28;19927;-77
2022/06/23 00:09:57;;;;;;;7.35;5.72;;;12.90;99.90;;;;;;5067483;28;20825;-79
2022/06/23 00:12:40;;;;;;;7.22;5.85;;;12.90;99.90;;;;;;5060882;28;20096;-77
2022/06/23 00:15:06;;;;;;;6.45;5.82;;;12.80;99.90;;;;;;5051157;28;20070;-79
2022/06/23 00:17:40;;;;;;;6.70;5.22;;;12.80;99.90;;;;;;5034311;28;20044;-80
2022/06/23 00:20:20;;;;;;;7.22;5.82;;;12.80;99.90;;;;;;5069109;28;20049;-77
2022/06/23 00:22:53;;;;;;;6.70;6.00;;;12.80;99.90;;;;;;5054925;28;20036;-78
2022/06/23 00:25:39;;;;;;;7.38;5.70;;;12.80;99.90;;;;;;5072601;28;20036;-77
2022/06/23 00:28:06;;;;;;;6.25;5.35;;;12.90;99.90;;;;;;5088620;28;20044;-76
2022/06/23 00:30:40;;;;;;;6.75;6.07;;;12.80;99.90;;;;;;5069926;28;20039;-76
2022/06/23 00:33:15;;;;;;;10.63;5.80;;;12.90;99.90;;;;;;5055452;28;20056;-77
2022/06/23 00:35:40;;;;;;;6.70;6.00;;;12.80;99.90;;;;;;5083387;28;20119;-78
2022/06/23 00:38:19;;;;;;;7.57;6.88;;;12.70;99.90;;;;;;5060270;28;20554;-78
2022/06/23 00:40:45;;;;;;;7.18;6.38;;;12.80;99.90;;;;;;5089859;28;20041;-77
2022/06/23 00:43:11;;;;;;;6.65;5.95;;;12.60;99.90;;;;;;5080116;28;20051;-77
2022/06/23 00:45:44;;;;;;;6.25;5.57;;;12.70;99.90;;;;;;5087083;28;20125;-77
2022/06/23 00:48:22;;;;;;;7.47;5.88;;;12.60;99.90;;;;;;5041161;28;20104;-79
2022/06/23 00:51:19;;;;;;;8.55;5.82;;;12.60;99.90;;;;;;5049291;28;20415;-77
2022/06/23 00:53:58;;;;;;;7.68;6.25;;;12.40;99.90;;;;;;5043532;28;20486;-77
2022/06/23 00:56:50;;;;;;;8.43;7.30;;;12.40;99.90;;;;;;5048291;28;20109;-77
2022/06/23 00:59:41;;;;;;;7.38;6.30;;;12.40;99.90;;;;;;5042457;28;20487;-77
2022/06/23 01:02:19;;;;;;;8.45;6.70;;;12.40;99.90;;;;;;5085658;28;20051;-78
2022/06/23 01:05:17;;;;;;;7.20;6.30;;;12.30;99.90;;;;;;5060426;28;20146;-79
2022/06/23 01:08:04;;;;;;;8.27;7.05;;;12.40;99.90;;;;;;5048069;28;20052;-78
2022/06/23 01:10:38;;;;;;;9.55;7.18;;;12.40;99.90;;;;;;5059082;28;20044;-78
2022/06/23 01:13:42;;;;;;;8.23;6.25;;;12.40;99.90;;;;;;5068453;28;20040;-78
2022/06/23 01:16:22;;;;;;;8.32;7.50;;;12.30;99.90;;;;;;5051100;28;20491;-77
2022/06/23 01:19:13;;;;;;;9.43;7.43;;;12.30;99.90;;;;;;5050932;28;20048;-78
2022/06/23 01:21:51;;;;;;;8.10;7.22;;;12.40;99.90;;;;;;5066449;28;20159;-77
2022/06/23 01:24:39;;;;;;;8.27;7.47;;;12.30;99.90;;;;;;5050418;28;20052;-78
2022/06/23 01:27:23;;;;;;;10.18;8.05;;;12.40;99.90;;;;;;5049335;28;20044;-77
2022/06/23 01:30:09;;;;;;;8.48;7.28;;;12.40;99.90;;;;;;5053112;28;20052;-76
2022/06/23 01:33:01;;;;;;;7.82;7.03;;;12.50;99.90;;;;;;5065433;28;20076;-77
2022/06/23 01:35:29;;;;;;;9.38;8.35;;;12.40;99.90;;;;;;5067384;28;20133;-79
2022/06/23 01:38:09;;;;;;;10.13;7.03;;;12.50;99.90;;;;;;5044303;28;20371;-79
2022/06/23 01:40:47;;;;;;;9.73;8.82;;;12.40;99.90;;;;;;5048862;28;20052;-78
2022/06/23 01:43:28;;;;;;;8.50;7.55;;;12.50;99.90;;;;;;5047909;28;20407;-78
2022/06/23 01:46:03;;;;;;;10.45;7.50;;;12.50;99.90;;;;;;5047643;28;20056;-78
2022/06/23 01:48:53;;;;;;;11.13;7.45;;;12.40;99.90;;;;;;5033181;28;20577;-78
2022/06/23 01:51:37;;;;;;;8.55;6.93;;;12.40;99.90;;;;;;5067937;28;20052;-79
2022/06/23 01:54:11;;;;;;;10.00;8.52;;;12.20;99.90;;;;;;5063298;28;20395;-78
2022/06/23 01:56:50;;;;;;;8.55;7.03;;;12.30;99.90;;;;;;5027830;28;20103;-78
2022/06/23 01:59:40;;;;;;;10.63;9.10;;;12.10;99.90;;;;;;5044413;28;20041;-78
2022/06/23 02:02:24;;;;;;;;;;;12.30;99.90;;;;;;5056872;28;20060;-77
2022/06/23 02:04:50;;;;;;;12.15;8.80;;;12.10;99.90;;;;;;5088010;28;19912;-78
2022/06/23 02:07:53;;;;;;;9.98;7.93;;;12.10;99.90;;;;;;5079092;28;20048;-77
2022/06/23 02:11:00;;;;;;;12.30;8.73;;;12.20;99.90;;;;;;5074229;28;20417;-78
2022/06/23 02:13:34;;;;;;;11.90;9.45;;;12.30;99.90;;;;;;5068479;28;20523;-79
2022/06/23 02:16:19;;;;;;;11.68;8.95;;;12.30;99.90;;;;;;5046380;28;20045;-78
2022/06/23 02:19:23;;;;;;;10.70;8.30;;;12.30;99.90;;;;;;5065504;28;20935;-78
2022/06/23 02:22:05;;;;;;;11.48;8.48;;;12.30;99.90;;;;;;5048711;28;20105;-79
2022/06/23 02:25:06;;;;;;;10.98;9.75;;;12.40;99.90;;;;;;5083007;28;20039;-78
2022/06/23 02:27:56;;;;;;;14.25;10.57;;;12.30;99.90;;;;;;5050485;28;20102;-76
2022/06/23 02:30:30;;;;;;;12.43;9.68;;;12.30;99.90;;;;;;5068150;28;20513;-78
2022/06/23 02:33:23;;;;;;;14.82;9.90;;;12.20;99.90;;;;;;5069481;28;20436;-79
2022/06/23 02:36:17;;;;;;;14.20;10.85;;;12.40;99.90;;;;;;5071279;28;20040;-78
2022/06/23 02:38:53;;;;;;;13.40;10.27;;;12.50;99.90;;;;;;5066678;28;20067;-78
2022/06/23 02:41:30;;;;;;;11.65;9.18;;;12.40;99.90;;;;;;5074385;28;20044;-76
2022/06/23 02:44:46;;;;;;;18.90;11.38;;;12.50;99.90;;;;;;5070068;28;20418;-78
2022/06/23 02:48:20;;;;;;;15.45;11.50;;;12.30;99.90;;;;;;5036376;28;20518;-78
2022/06/23 02:51:05;;;;;;;11.95;9.55;;;12.40;99.90;;;;;;5009502;28;20458;-78
2022/06/23 02:53:49;;;;;;;15.35;10.38;;;12.30;99.90;;;;;;5005323;28;20041;-77
2022/06/23 02:56:28;;;;;;;12.02;9.95;;;12.30;99.90;;;;;;5031006;28;20045;-77
2022/06/23 02:59:11;;;;;;;15.80;10.63;;;12.40;99.90;;;;;;5048483;28;20102;-78
2022/06/23 03:02:09;;;;;;;11.00;9.35;;;12.20;99.90;;;;;;5062051;28;20061;-78
2022/06/23 03:04:53;;;;;;;12.60;10.35;;;12.30;99.90;;;;;;5087872;28;20496;-78
2022/06/23 03:07:30;;;;;;;11.40;9.80;;;12.30;99.90;;;;;;5083977;28;20044;-77
2022/06/23 03:10:11;;;;;;;12.15;10.80;;;12.20;99.90;;;;;;5059945;28;20427;-77
2022/06/23 03:12:54;;;;;;;14.60;10.93;;;12.20;99.90;;;;;;5067188;28;20086;-78
2022/06/23 03:15:34;;;;;;;13.55;11.05;;;12.20;99.90;;;;;;5042678;28;20055;-77
2022/06/23 03:18:10;;;;;;;17.60;11.25;;;12.20;99.90;;;;;;5076193;28;20044;-79
2022/06/23 03:20:54;;;;;;;17.55;10.55;;;12.20;99.90;;;;;;5068558;28;20046;-78
2022/06/23 03:23:32;;;;;;;14.65;11.15;;;12.20;99.90;;;;;;5066247;28;20093;-77
2022/06/23 03:26:21;;;;;;;17.92;10.85;;;12.20;99.90;;;;;;5086685;28;20043;-77
2022/06/23 03:29:00;;;;;;;15.45;10.65;;;12.20;99.90;;;;;;5085287;28;20399;-77
2022/06/23 03:31:40;;;;;;;13.90;11.48;;;12.30;99.90;;;;;;5051652;28;20128;-77
2022/06/23 03:34:47;;;;;;;12.73;10.18;;;12.10;99.90;;;;;;5085937;28;20073;-78
2022/06/23 03:37:20;;;;;;;15.80;11.30;;;12.20;99.90;;;;;;5063376;28;20056;-78
2022/06/23 03:42:43;;;;;;;14.15;11.52;;;12.20;99.90;;;;;;5066766;28;20053;-79
2022/06/23 03:45:24;;;;;;;15.13;11.82;;;12.30;99.90;;;;;;5066135;28;20049;-79
2022/06/23 03:48:05;;;;;;;16.67;11.52;;;12.30;99.90;;;;;;5068135;28;20377;-79
2022/06/23 03:50:59;;;;;;;15.02;11.18;;;12.20;99.90;;;;;;5030852;28;1103786;-78
2022/06/23 03:53:37;;;;;;;14.50;12.27;;;12.40;99.90;;;;;;5064364;28;20487;-79
2022/06/23 03:56:10;;;;;;;20.17;13.00;;;12.30;99.90;;;;;;5072484;28;20115;-78
2022/06/23 03:59:08;;;;;;;14.75;12.27;;;12.40;99.90;;;;;;5043261;28;20104;-77
2022/06/23 04:01:57;;;;;;;17.45;13.18;;;12.50;99.90;;;;;;5003788;28;20052;-79
2022/06/23 04:04:43;;;;;;;14.80;12.35;;;12.50;99.90;;;;;;5041070;28;20043;-78
2022/06/23 04:07:44;;;;;;;22.10;12.23;;;12.50;99.90;;;;;;5078599;28;20043;-78
2022/06/23 04:10:14;;;;;;;17.02;12.60;;;12.60;99.90;;;;;;4985101;28;20039;-78
2022/06/23 04:12:46;;;;;;;16.08;12.38;;;12.60;99.90;;;;;;5043663;28;20102;-77
2022/06/23 04:15:25;;;;;;;18.80;12.25;;;12.80;99.90;;;;;;5087533;28;20131;-78
2022/06/23 04:17:56;;;;;;;17.45;13.02;;;13.00;99.90;;;;;;5038975;28;20052;-79
2022/06/23 04:20:44;;;;;;;15.77;12.88;;;12.90;99.90;;;;;;5085560;28;20047;-79
2022/06/23 04:23:32;;;;;;;15.05;13.40;;;13.00;99.90;;;;;;5066473;28;20123;-79
2022/06/23 04:26:22;;;;;;;18.13;13.90;;;12.80;99.90;;;;;;5065898;28;20120;-78
2022/06/23 04:28:51;;;;;;;16.38;11.70;;;12.90;99.90;;;;;;5086299;28;20048;-77
2022/06/23 04:31:46;;;;;;;18.77;12.65;;;13.00;99.90;;;;;;5087795;28;20040;-79
2022/06/23 04:34:29;;;;;;;15.68;12.55;;;13.50;99.90;;;;;;5070585;28;20131;-78
2022/06/23 04:36:55;;;;;;;14.35;12.63;;;13.40;99.90;;;;;;5076576;28;20060;-78
2022/06/23 04:39:32;;;;;;;17.60;14.55;;;13.70;99.90;;;;;;5085521;28;20040;-79
2022/06/23 04:42:25;;;;;;;14.68;12.48;;;13.90;99.90;;;;;;5090206;28;20039;-80
2022/06/23 04:44:55;;;;;;;15.85;12.77;;;13.60;99.90;;;;;;5087268;28;20051;-78
2022/06/23 04:47:26;;;;;;;14.70;12.57;;;13.80;99.90;;;;;;5079257;28;20040;-78
2022/06/23 04:49:58;;;;;;;18.65;13.07;;;14.00;99.90;;;;;;5055904;28;20062;-78
2022/06/23 04:52:27;;;;;;;16.17;12.55;;;14.20;99.90;;;;;;5066083;28;20047;-79
2022/06/23 04:55:10;;;;;;;16.75;12.88;;;14.20;99.90;;;;;;5056320;28;20045;-76
2022/06/23 04:57:48;;;;;;;17.48;12.77;;;14.00;99.90;;;;;;5066202;28;20059;-77
2022/06/23 05:00:23;;;;;;;15.27;11.65;;;14.20;99.90;;;;;;5057955;28;20072;-77
2022/06/23 05:02:53;;;;;;;20.23;13.75;;;14.10;99.90;;;;;;5065230;28;20042;-77
2022/06/23 05:05:32;;;;;;;16.58;12.23;;;14.10;99.90;;;;;;5066191;28;20044;-77
2022/06/23 05:08:13;;;;;;;14.88;10.82;;;14.20;99.90;;;;;;5046765;28;20133;-76
2022/06/23 05:10:58;;;;;;;14.20;11.25;;;14.20;99.90;;;;;;5062524;28;20269;-77
2022/06/23 05:13:29;;;;;;;13.25;10.85;;;14.40;99.90;;;;;;5031019;28;20052;-77
2022/06/23 05:16:09;;;;;;;14.00;11.27;;;14.30;99.90;;;;;;5067842;28;20048;-77
2022/06/23 05:18:43;;;;;;;17.48;12.68;;;14.30;99.90;;;;;;5079572;28;20047;-77
2022/06/23 05:21:14;;;;;;;13.65;11.50;;;14.50;99.90;;;;;;5064876;28;20522;-76
2022/06/23 05:23:54;;;;;;;17.20;12.27;;;14.40;99.90;;;;;;5083051;28;20438;-77
2022/06/23 05:26:31;;;;;;;15.55;11.73;;;14.60;99.90;;;;;;5068505;28;20108;-77
2022/06/23 05:29:04;;;;;;;14.98;11.63;;;14.60;99.90;;;;;;5083324;28;20044;-77
2022/06/23 05:31:35;;;;;;;15.38;12.13;;;14.50;99.90;;;;;;5068142;28;20050;-77
2022/06/23 05:34:08;;;;;;;14.80;11.30;;;14.80;99.90;;;;;;5064774;28;20040;-78
2022/06/23 05:36:50;;;;;;;14.38;11.05;;;14.80;99.90;;;;;;5073111;28;20169;-80
2022/06/23 05:39:28;;;;;;;17.48;12.38;;;14.80;99.90;;;;;;5049480;28;20251;-77
2022/06/23 05:41:58;;;;;;;15.98;11.25;;;14.90;99.90;;;;;;5086187;28;20063;-82
2022/06/23 05:44:29;;;;;;;16.45;10.82;;;15.10;99.90;;;;;;5080540;28;20482;-76
2022/06/23 05:46:58;;;;;;;14.93;11.57;;;15.10;99.90;;;;;;5056300;28;20048;-79
2022/06/23 05:49:30;;;;;;;14.23;11.43;;;15.30;99.90;;;;;;5049490;28;20084;-79
2022/06/23 05:52:04;;;;;;;17.83;12.18;;;15.40;99.90;;;;;;5081362;28;20074;-80
2022/06/23 05:54:41;;;;;;;16.05;11.32;;;15.40;99.90;;;;;;5040692;28;20036;-79
2022/06/23 05:57:19;;;;;;;16.70;12.18;;;15.60;99.90;;;;;;5073077;28;20125;-79
2022/06/23 05:59:45;;;;;;;15.93;10.40;;;15.70;99.90;;;;;;5059151;28;20083;-80
2022/06/23 06:02:21;;;;;;;15.38;11.82;;;15.70;99.90;;;;;;5057518;28;20452;-80
2022/06/23 06:04:54;;;;;;;12.18;10.90;;;15.90;99.90;;;;;;5059736;28;20704;-79
2022/06/23 06:07:26;;;;;;;14.25;10.68;;;15.90;99.90;;;;;;5049516;28;20048;-79
2022/06/23 06:09:54;;;;;;;13.32;10.90;;;15.90;99.90;;;;;;5073238;28;20052;-78
2022/06/23 06:12:25;;;;;;;15.15;11.45;;;16.10;99.90;;;;;;5059240;28;20049;-78
2022/06/23 06:14:59;;;;;;;11.43;10.15;;;16.10;99.90;;;;;;5073926;28;20108;-80
2022/06/23 06:17:30;;;;;;;13.52;10.15;;;16.30;99.90;;;;;;5085363;28;20129;-80
2022/06/23 06:19:58;;;;;;;12.15;10.10;;;16.40;99.90;;;;;;5065619;28;20076;-80
2022/06/23 06:22:42;;;;;;;13.27;11.13;;;16.40;99.90;;;;;;5070351;28;20053;-80
2022/06/23 06:25:26;;;;;;;13.18;10.27;;;16.50;99.90;;;;;;5060240;28;20036;-78
2022/06/23 06:27:54;;;;;;;11.20;9.75;;;16.50;99.90;;;;;;5079150;28;20215;-79
2022/06/23 06:30:26;;;;;;;19.05;10.05;;;16.70;99.90;;;;;;5045652;28;20053;-80
2022/06/23 06:32:53;;;;;;;19.58;11.48;;;16.80;99.90;;;;;;5043927;28;20363;-79
2022/06/23 06:35:36;;;;;;;13.27;10.52;;;16.70;99.90;;;;;;5063006;28;20082;-78
2022/06/23 06:38:23;;;;;;;13.07;10.73;;;16.80;99.90;;;;;;5068018;28;20044;-80
2022/06/23 06:40:54;;;;;;;15.60;10.48;;;17.00;99.90;;;;;;5065501;28;20068;-77
2022/06/23 06:43:24;;;;;;;14.10;10.15;;;17.10;99.90;;;;;;5063882;28;20072;-81
2022/06/23 06:45:50;;;;;;;12.07;9.80;;;17.20;99.90;;;;;;5044800;28;20036;-79
2022/06/23 06:48:31;;;;;;;14.40;10.10;;;17.20;99.90;;;;;;5066912;28;20049;-79
2022/06/23 06:51:04;;;;;;;11.32;9.38;;;17.40;99.90;;;;;;5060862;28;20056;-81
2022/06/23 06:53:37;;;;;;;12.10;9.27;;;17.90;99.90;;;;;;5050742;28;20886;-80
2022/06/23 06:56:28;;;;;;;14.68;9.85;;;18.30;99.90;;;;;;5045665;28;20036;-80
2022/06/23 06:59:31;;;;;;;14.40;8.77;;;18.00;99.90;;;;;;5061269;28;20044;-83
2022/06/23 07:02:03;;;;;;;10.43;7.88;;;18.50;99.90;;;;;;5047962;28;20123;-80
2022/06/23 07:04:38;;;;;;;8.75;7.70;;;20.40;99.90;;;;;;5068802;28;20097;-78
2022/06/23 07:07:07;;;;;;;10.93;7.53;;;20.30;99.90;;;;;;5066326;28;20044;-81
2022/06/23 07:10:00;;;;;;;8.63;6.60;;;21.50;99.90;;;;;;5051119;28;20170;-80
2022/06/23 07:12:26;;;;;;;11.68;7.80;;;21.90;99.90;;;;;;5050115;28;20055;-81
2022/06/23 07:15:11;;;;;;;9.35;6.63;;;21.90;99.90;;;;;;5068531;28;20090;-78
2022/06/23 07:17:50;;;;;;;7.80;6.22;;;22.50;99.90;;;;;;5067773;28;20062;-81
2022/06/23 07:20:52;;;;;;;8.25;6.85;;;22.10;99.90;;;;;;5060881;28;20091;-80
2022/06/23 07:23:24;;;;;;;9.25;5.30;;;22.20;99.90;;;;;;5049250;28;20037;-80
2022/06/23 07:25:54;;;;;;;6.43;5.13;;;22.90;99.90;;;;;;5030873;28;20041;-79
2022/06/23 07:28:39;;;;;;;12.02;5.60;;;23.10;99.90;;;;;;5087483;28;20121;-80
2022/06/23 07:31:12;;;;;;;8.60;5.95;;;22.70;99.90;;;;;;5054820;28;20376;-79
2022/06/23 07:33:40;;;;;;;6.53;5.93;;;22.70;99.90;;;;;;5049376;28;20423;-79
2022/06/23 07:36:18;;;;;;;8.70;4.95;;;23.00;99.90;;;;;;5064406;28;20051;-78
2022/06/23 07:39:18;;;;;;;6.70;5.68;;;24.10;99.90;;;;;;5049234;28;20044;-78
2022/06/23 07:41:59;;;;;;;5.40;5.00;;;24.60;99.90;;;;;;5040293;28;20087;-79
2022/06/23 07:44:34;;;;;;;5.60;5.00;;;24.10;99.90;;;;;;5068497;28;20041;-79
2022/06/23 07:47:01;;;;;;;7.85;5.20;;;24.60;99.90;;;;;;5062624;28;20095;-79
2022/06/23 07:49:27;;;;;;;5.82;4.63;;;24.40;99.90;;;;;;5069479;28;20443;-79
2022/06/23 07:51:56;;;;;;;8.02;7.22;;;24.60;99.90;;;;;;5073396;28;20587;-78
2022/06/23 07:54:23;;;;;;;10.85;6.35;;;22.80;99.90;;;;;;5058437;28;20119;-80
2022/06/23 07:56:50;;;;;;;10.68;6.47;;;22.30;99.90;;;;;;5054509;28;20479;-76
2022/06/23 07:59:19;;;;;;;6.43;5.60;;;21.90;99.90;;;;;;5068054;28;20046;-78
2022/06/23 08:01:58;;;;;;;6.00;4.93;;;22.20;99.90;;;;;;5062352;28;20044;-77
2022/06/23 08:04:37;;;;;;;7.90;5.40;;;22.20;99.90;;;;;;5046374;28;20056;-79
2022/06/23 08:07:06;;;;;;;6.72;5.30;;;22.00;99.90;;;;;;5057257;28;20352;-78
2022/06/23 08:09:37;;;;;;;7.70;5.50;;;21.80;99.90;;;;;;5049517;28;20098;-78
2022/06/23 08:17:48;;;;;;;9.90;5.80;;;22.70;99.90;;;;;;5061357;28;20140;-78
2022/06/23 08:20:15;;;;;;;;;;;22.40;99.90;;;;;;5050144;28;20063;-82
2022/06/23 08:22:42;;;;;;;8.60;5.03;;;22.60;99.90;;;;;;5049546;28;19939;-79
2022/06/23 08:25:09;;;;;;;10.85;5.95;;;23.00;99.90;;;;;;5067138;28;20529;-79
2022/06/23 08:27:40;;;;;;;12.63;5.20;;;22.80;99.90;;;;;;5067139;28;20174;-80
2022/06/23 08:30:14;;;;;;;9.23;5.75;;;23.00;99.90;;;;;;5019250;28;20273;-81
2022/06/23 08:32:44;;;;;;;5.72;5.00;;;22.60;99.90;;;;;;5038948;28;20059;-81
2022/06/23 08:35:22;;;;;;;7.22;6.20;;;22.60;99.90;;;;;;5048158;28;20037;-80
2022/06/23 08:37:59;;;;;;;32.10;10.98;;;22.50;99.90;;;;;;5049768;28;20037;-77
2022/06/23 08:40:47;;;;;;;8.68;5.68;;;22.80;99.90;;;;;;5067945;28;20044;-79
2022/06/23 08:43:16;;;;;;;6.40;5.03;;;22.40;99.90;;;;;;5034555;28;20390;-80
2022/06/23 08:46:12;;;;;;;18.83;5.40;;;22.80;99.90;;;;;;5067126;28;20405;-81
2022/06/23 08:48:44;;;;;;;6.03;4.90;;;23.30;99.90;;;;;;5062324;28;20661;-81
2022/06/23 08:51:21;;;;;;;20.17;8.02;;;23.30;99.90;;;;;;5065406;28;20428;-81
2022/06/23 08:54:10;;;;;;;18.75;6.95;;;23.20;99.90;;;;;;5049080;28;20041;-82
2022/06/23 08:56:53;;;;;;;11.15;4.95;;;23.30;99.90;;;;;;5046573;28;20062;-81
2022/06/23 08:59:30;;;;;;;10.50;6.10;;;23.40;99.90;;;;;;5041959;28;20044;-79
2022/06/23 09:02:05;;;;;;;11.32;6.60;;;23.70;99.90;;;;;;5079287;28;20043;-82
2022/06/23 09:05:00;;;;;;;8.20;4.55;;;23.70;99.90;;;;;;5065610;28;20047;-80
2022/06/23 09:07:58;;;;;;;6.00;4.15;;;23.80;99.90;;;;;;5012235;28;20053;-80
2022/06/23 09:10:36;;;;;;;9.27;5.10;;;24.00;99.90;;;;;;5029362;28;20063;-81
2022/06/23 09:13:24;;;;;;;13.20;5.03;;;24.00;99.90;;;;;;5046100;28;20044;-82
2022/06/23 09:15:57;;;;;;;7.20;4.95;;;23.80;99.90;;;;;;5064658;28;20491;-82
2022/06/23 09:19:02;;;;;;;7.47;4.47;;;23.90;99.90;;;;;;5065637;28;20091;-81
2022/06/23 09:21:27;;;;;;;5.55;3.10;;;24.00;99.90;;;;;;4981115;28;20508;-82
2022/06/23 09:24:18;;;;;;;10.40;4.07;;;24.40;99.90;;;;;;4986188;28;20136;-82
2022/06/23 09:26:58;;;;;;;6.75;3.55;;;24.50;99.90;;;;;;5017530;28;20092;-81
2022/06/23 09:29:36;;;;;;;7.35;2.97;;;24.50;99.90;;;;;;5063735;28;20581;-81
2022/06/23 09:32:22;;;;;;;5.03;3.50;;;24.40;99.90;;;;;;5046462;28;20045;-82
2022/06/23 09:35:06;;;;;;;9.63;3.67;;;24.50;99.90;;;;;;5071682;28;20601;-81
2022/06/23 09:38:00;;;;;;;4.57;3.08;;;24.30;99.90;;;;;;5065879;28;20280;-82
2022/06/23 09:40:49;;;;;;;4.75;3.45;;;24.40;99.90;;;;;;5064974;28;20102;-81
2022/06/23 09:43:14;;;;;;;2.88;2.58;;;24.70;99.90;;;;;;5063701;28;20047;-81
2022/06/23 09:46:01;;;;;;;4.22;2.47;;;24.90;99.90;;;;;;5046706;28;20048;-82
2022/06/23 09:48:27;;;;;;;7.35;3.35;;;25.10;99.90;;;;;;5068611;28;20097;-81
2022/06/23 09:51:03;;;;;;;5.43;3.53;;;25.20;99.90;;;;;;5068783;28;20052;-80
2022/06/23 09:53:51;;;;;;;17.63;3.55;;;24.90;99.90;;;;;;5043536;28;20105;-80
2022/06/23 09:56:35;;;;;;;3.58;3.05;;;24.90;99.90;;;;;;5064547;28;20043;-81
2022/06/23 09:59:16;;;;;;;6.43;3.28;;;24.80;99.90;;;;;;5046371;28;20516;-82
2022/06/23 10:02:05;;;;;;;6.78;3.25;;;25.10;99.90;;;;;;5030348;28;20479;-80
2022/06/23 10:04:48;;;;;;;8.00;3.40;;;25.20;99.90;;;;;;5047278;28;20105;-81
2022/06/23 10:07:34;;;;;;;3.22;2.80;;;25.00;99.90;;;;;;5047828;28;20086;-80
2022/06/23 10:10:18;;;;;;;4.90;2.60;;;25.10;99.90;;;;;;5045666;28;20040;-80
2022/06/23 10:13:23;;;;;;;4.15;2.38;;;25.00;99.90;;;;;;5052740;28;20072;-81
2022/06/23 10:16:06;;;;;;;7.85;3.42;;;25.40;99.90;;;;;;5063383;28;20056;-79
2022/06/23 10:19:00;;;;;;;7.97;2.72;;;25.40;99.90;;;;;;5046416;28;20044;-81
2022/06/23 10:21:26;;;;;;;5.97;2.10;;;25.90;99.90;;;;;;5033399;28;20059;-80
2022/06/23 10:24:07;;;;;;;3.70;2.15;;;26.20;99.90;;;;;;5056530;28;20510;-80
2022/06/23 10:27:15;;;;;;;5.20;2.55;;;26.10;99.90;;;;;;5071659;28;20040;-79
2022/06/23 10:29:53;;;;;;;2.83;2.10;;;26.20;99.90;;;;;;5023808;28;20098;-80
2022/06/23 10:32:36;;;;;;;4.88;2.13;;;26.20;99.90;;;;;;5047794;28;20044;-79
2022/06/23 10:35:23;;;;;;;4.68;1.88;;;26.40;99.90;;;;;;5051109;28;20048;-82
2022/06/23 10:38:18;;;;;;;5.32;2.10;;;26.80;99.90;;;;;;5068425;28;20465;-82
2022/06/23 10:41:02;;;;;;;4.57;1.80;;;26.40;99.90;;;;;;5049974;28;20049;-81
2022/06/23 10:43:37;;;;;;;3.28;2.22;;;26.40;99.90;;;;;;5067548;28;20177;-81
2022/06/23 10:46:23;;;;;;;6.40;2.13;;;26.50;99.90;;;;;;5068538;28;20108;-81
2022/06/23 10:48:55;;;;;;;3.05;2.00;;;26.60;99.90;;;;;;5045168;28;20535;-80
2022/06/23 10:51:41;;;;;;;7.10;2.10;;;26.50;99.90;;;;;;5049856;28;20048;-81
2022/06/23 10:54:35;;;;;;;6.70;1.92;;;26.70;99.90;;;;;;5081904;28;20054;-81
2022/06/23 10:57:36;;;;;;;2.22;1.92;;;26.80;99.90;;;;;;5089105;28;20062;-82
2022/06/23 11:00:15;;;;;;;4.53;2.42;;;27.20;99.90;;;;;;5077238;28;20040;-81
2022/06/23 11:03:18;;;;;;;3.47;1.83;;;27.10;99.90;;;;;;5074164;28;20421;-81
2022/06/23 11:05:54;;;;;;;4.60;1.65;;;26.90;99.90;;;;;;5067898;28;20048;-82
2022/06/23 11:08:42;;;;;;;2.90;2.05;;;26.90;99.90;;;;;;5050649;28;20053;-80
2022/06/23 11:11:40;;;;;;;5.47;2.17;;;27.00;99.90;;;;;;5066996;28;20177;-80
2022/06/23 11:14:18;;;;;;;4.72;2.20;;;27.00;99.90;;;;;;5069753;28;20041;-78
2022/06/23 11:17:03;;;;;;;4.22;2.22;;;27.00;99.90;;;;;;5045836;28;20055;-79
2022/06/23 11:19:49;;;;;;;4.88;1.67;;;26.80;99.90;;;;;;5046735;28;20043;-79
2022/06/23 11:22:50;;;;;;;6.45;2.45;;;27.00;99.90;;;;;;5034375;28;20532;-81
2022/06/23 11:25:34;;;;;;;4.78;2.40;;;27.20;99.90;;;;;;5063398;28;20659;-82
2022/06/23 11:28:17;;;;;;;8.73;2.83;;;27.30;99.90;;;;;;5066485;28;20771;-82
2022/06/23 11:31:18;;;;;;;6.05;2.60;;;27.30;99.90;;;;;;5048769;28;20070;-80
2022/06/23 11:33:59;;;;;;;2.72;2.08;;;27.40;99.90;;;;;;5064702;28;20403;-81
2022/06/23 11:37:04;;;;;;;4.03;2.10;;;27.50;99.90;;;;;;5067660;28;20056;-81
2022/06/23 11:40:13;;;;;;;6.90;2.28;;;27.30;99.90;;;;;;4995732;28;20484;-78
2022/06/23 11:43:05;;;;;;;3.85;2.20;;;27.60;99.90;;;;;;4969338;28;20042;-80
2022/06/23 11:45:46;;;;;;;5.93;2.55;;;27.60;99.90;;;;;;5020518;28;20057;-79
2022/06/23 11:48:37;;;;;;;8.18;2.22;;;27.80;99.90;;;;;;5066872;28;20068;-79
2022/06/23 11:51:06;;;;;;;5.47;2.60;;;27.80;99.90;;;;;;5053501;28;20391;-77
2022/06/23 11:53:55;;;;;;;5.88;2.63;;;27.80;99.90;;;;;;5056537;28;20117;-77
2022/06/23 11:56:26;;;;;;;3.25;2.80;;;27.70;99.90;;;;;;5056122;28;20059;-79
2022/06/23 11:59:01;;;;;;;4.22;2.00;;;28.00;99.90;;;;;;5069425;28;20041;-78
2022/06/23 12:01:28;;;;;;;8.32;3.35;;;27.70;99.90;;;;;;5057970;28;20040;-78
2022/06/23 12:04:28;;;;;;;5.95;2.30;;;27.70;99.90;;;;;;5061528;28;20434;-77
2022/06/23 12:07:02;;;;;;;4.78;2.38;;;27.80;99.90;;;;;;5044654;28;20048;-78
2022/06/23 12:10:04;;;;;;;7.90;3.10;;;27.90;99.90;;;;;;5046646;28;20051;-78
2022/06/23 12:12:33;;;;;;;4.28;2.33;;;28.20;99.90;;;;;;5020070;28;20053;-78
2022/06/23 12:14:59;;;;;;;5.87;2.47;;;28.50;99.90;;;;;;5068004;28;20047;-77
2022/06/23 12:17:34;;;;;;;4.88;2.10;;;28.50;99.90;;;;;;5066070;28;20155;-78
2022/06/23 12:20:16;;;;;;;7.20;2.70;;;28.00;99.90;;;;;;5068187;28;20039;-78
2022/06/23 12:22:57;;;;;;;2.03;1.60;;;28.50;99.90;;;;;;5065744;28;20090;-77
2022/06/23 12:26:16;;;;;;;3.65;2.00;;;28.60;99.90;;;;;;5033234;28;20044;-78
2022/06/23 12:29:05;;;;;;;3.20;2.83;;;28.80;99.90;;;;;;4983379;28;20042;-77
2022/06/23 12:31:54;;;;;;;2.35;1.92;;;28.70;99.90;;;;;;5043847;28;20044;-78
2022/06/23 12:34:43;;;;;;;5.35;2.22;;;28.90;99.90;;;;;;5045153;28;20046;-78
2022/06/23 12:37:33;;;;;;;2.47;1.90;;;28.80;99.90;;;;;;5047377;28;20051;-78
2022/06/23 12:40:11;;;;;;;;;;;28.80;99.90;;;;;;5051829;28;20505;-78
2022/06/23 12:42:42;;;;;;;4.25;2.08;;;28.80;99.90;;;;;;5083830;28;19927;-78
2022/06/23 12:45:10;;;;;;;3.78;1.98;;;28.90;99.90;;;;;;5070774;28;20068;-77
2022/06/23 12:47:51;;;;;;;3.88;2.00;;;28.80;99.90;;;;;;5063221;28;20076;-77
2022/06/23 12:50:19;;;;;;;2.92;2.05;;;29.20;99.90;;;;;;5054234;28;20175;-77
2022/06/23 12:53:07;;;;;;;3.45;1.55;;;29.20;99.90;;;;;;5048611;28;20048;-77
2022/06/23 12:55:49;;;;;;;2.67;1.67;;;29.10;99.90;;;;;;5042851;28;20044;-76
2022/06/23 12:58:35;;;;;;;5.95;1.55;;;29.10;99.90;;;;;;5061803;28;20040;-77
2022/06/23 13:01:12;;;;;;;2.30;1.80;;;29.40;99.90;;;;;;5030522;28;20048;-76
2022/06/23 13:03:40;;;;;;;2.63;1.70;;;29.70;99.90;;;;;;5067320;28;20058;-77
2022/06/23 13:06:39;;;;;;;4.68;1.92;;;29.50;99.90;;;;;;5083660;28;20060;-78
2022/06/23 13:09:27;;;;;;;4.10;1.30;;;29.70;99.90;;;;;;5048540;28;20410;-77
2022/06/23 13:12:04;;;;;;;6.13;1.90;;;29.80;99.90;;;;;;5046368;28;20373;-77
2022/06/23 13:14:53;;;;;;;4.97;2.15;;;30.00;99.90;;;;;;5033664;28;20427;-77
2022/06/23 13:17:40;;;;;;;6.13;1.63;;;30.20;99.90;;;;;;5048085;28;20040;-75
2022/06/23 13:20:09;;;;;;;3.65;2.38;;;29.80;99.90;;;;;;5051572;28;20515;-77
2022/06/23 13:22:51;;;;;;;4.33;1.83;;;29.90;99.90;;;;;;5044686;28;20087;-76
2022/06/23 13:25:23;;;;;;;6.43;1.80;;;29.80;99.90;;;;;;5045709;28;20051;-77
2022/06/23 13:27:52;;;;;;;3.50;1.42;;;30.00;99.90;;;;;;5066741;28;20097;-76
2022/06/23 13:30:21;;;;;;;3.67;1.80;;;30.30;99.90;;;;;;5046663;28;20131;-77
2022/06/23 13:33:10;;;;;;;3.30;1.50;;;30.10;99.90;;;;;;5042360;28;20052;-77
2022/06/23 13:35:44;;;;;;;3.05;1.80;;;30.30;99.90;;;;;;5048554;28;20041;-77
2022/06/23 13:38:22;;;;;;;3.10;1.98;;;30.20;99.90;;;;;;5039044;28;20082;-77
2022/06/23 13:40:58;;;;;;;1.90;1.80;;;30.00;99.90;;;;;;5068856;28;20536;-77
2022/06/23 13:43:34;;;;;;;2.25;2.05;;;30.10;99.80;;;;;;5067071;28;20070;-78
2022/06/23 13:46:15;;;;;;;6.85;1.75;;;30.10;99.90;;;;;;5046082;28;20086;-79
2022/06/23 13:48:46;;;;;;;1.80;1.67;;;30.20;99.90;;;;;;5022221;28;20043;-78
2022/06/23 13:51:22;;;;;;;7.65;2.70;;;30.50;99.90;;;;;;5066363;28;20056;-78
2022/06/23 13:53:52;;;;;;;2.40;1.70;;;30.30;99.90;;;;;;5073840;28;20044;-77
2022/06/23 13:56:34;;;;;;;6.00;1.75;;;30.20;99.90;;;;;;5066467;28;20044;-78
2022/06/23 13:59:21;;;;;;;3.05;1.80;;;30.30;99.90;;;;;;5080692;28;20402;-77